This is the latest recevied weather packets stored in our database for station/object Huerbel. If no packets are shown the sender has not sent any weather packets the latest 1 day(s).
| Time | Temp. | Humidity | Pressure | Rain* | Wind** | Luminosity | Snow |
|---|---|---|---|---|---|---|---|
| 1778099531 | 10° C | 82% | 1011.3 hPa | 1.52 mm | - | - | - |
| 1778097730 | 10° C | 82% | 1011.2 hPa | 1.52 mm | - | - | - |
| 1778095935 | 10° C | 81% | 1010.7 hPa | 1.52 mm | - | - | - |
| 1778090536 | 10.56° C | 81% | 1009.8 hPa | 1.52 mm | - | - | - |
| 1778088730 | 10.56° C | 80% | 1009.3 hPa | 1.52 mm | - | - | - |
| 1778085130 | 10.56° C | 83% | 1008.8 hPa | 1.52 mm | - | - | - |
| 1778079730 | 16.67° C | 66% | 1007.2 hPa | 0.76 mm | - | - | - |
| 1778068930 | 16.67° C | 59% | 1006.1 hPa | 0 mm | - | - | - |
| 1778067137 | 17.22° C | 60% | 1006.2 hPa | 0 mm | - | - | - |
| 1778061734 | 15.56° C | 66% | 1007 hPa | 0 mm | - | - | - |
| 1778059931 | 16.11° C | 65% | 1007.2 hPa | 0 mm | - | - | - |
| 1778058131 | 15.56° C | 65% | 1007.2 hPa | 0 mm | - | - | - |
| 1778054532 | 12.22° C | 82% | 1007.4 hPa | 0 mm | - | - | - |
| 1778052731 | 12.22° C | 82% | 1007.5 hPa | 0 mm | - | - | - |
| 1778050932 | 12.22° C | 82% | 1007.9 hPa | 0 mm | - | - | - |
| 1778040131 | 7.78° C | 88% | 1008.4 hPa | 0 mm | - | - | - |
| 1778036532 | 8.33° C | 87% | 1008.8 hPa | 0 mm | - | - | - |
| 1778032932 | 10.56° C | 82% | 1009.1 hPa | 0 mm | - | - | - |
| 1778031131 | 10.56° C | 82% | 1009.2 hPa | 0 mm | - | - | - |
| 1778029332 | 10.56° C | 82% | 1009.6 hPa | 0 mm | - | - | - |
| 1778020330 | 11.67° C | 81% | 1010.3 hPa | 0 mm | - | - | - |
| 1778016731 | 11.67° C | 80% | 1010.2 hPa | 1.02 mm | - | - | - |
* Rain since midnight (hover to see other rain measurements)
** Current wind speed in m/s (hover to see current wind gust speed)